sensor_id;sensor_type;location;lat;lon;timestamp;pressure;altitude;pressure_sealevel;temperature;humidity
20612;BME280;10465;42.686;23.364;2023-04-26T00:01:25;94047.41;;;11.73;91.80
20612;BME280;10465;42.686;23.364;2023-04-26T00:03:51;94073.41;;;11.80;92.00
20612;BME280;10465;42.686;23.364;2023-04-26T00:06:17;94066.63;;;11.70;92.17
20612;BME280;10465;42.686;23.364;2023-04-26T00:08:42;94057.03;;;11.66;92.35
20612;BME280;10465;42.686;23.364;2023-04-26T00:11:08;94063.09;;;11.66;92.71
20612;BME280;10465;42.686;23.364;2023-04-26T00:13:33;94056.59;;;11.63;92.71
20612;BME280;10465;42.686;23.364;2023-04-26T00:15:59;94045.31;;;11.67;92.52
20612;BME280;10465;42.686;23.364;2023-04-26T00:18:24;94047.31;;;11.70;92.37
20612;BME280;10465;42.686;23.364;2023-04-26T00:20:50;94021.13;;;11.56;91.61
20612;BME280;10465;42.686;23.364;2023-04-26T00:23:16;94038.03;;;11.51;92.65
20612;BME280;10465;42.686;23.364;2023-04-26T00:25:41;94036.69;;;11.57;92.56
20612;BME280;10465;42.686;23.364;2023-04-26T00:28:07;93994.94;;;11.30;91.95
20612;BME280;10465;42.686;23.364;2023-04-26T00:30:34;94043.13;;;11.69;92.32
20612;BME280;10465;42.686;23.364;2023-04-26T00:33:02;94014.59;;;11.53;91.95
20612;BME280;10465;42.686;23.364;2023-04-26T00:35:27;94034.94;;;11.61;91.65
20612;BME280;10465;42.686;23.364;2023-04-26T00:37:53;94026.56;;;11.59;91.66
20612;BME280;10465;42.686;23.364;2023-04-26T00:40:19;94029.84;;;11.56;92.15
20612;BME280;10465;42.686;23.364;2023-04-26T00:42:44;94024.66;;;11.48;92.37
20612;BME280;10465;42.686;23.364;2023-04-26T00:45:10;94026.75;;;11.54;91.99
20612;BME280;10465;42.686;23.364;2023-04-26T00:47:36;94030.41;;;11.50;92.44
20612;BME280;10465;42.686;23.364;2023-04-26T00:50:01;94024.97;;;11.46;92.56
20612;BME280;10465;42.686;23.364;2023-04-26T00:52:29;94015.25;;;11.38;92.66
20612;BME280;10465;42.686;23.364;2023-04-26T00:54:55;94014.72;;;11.32;93.05
20612;BME280;10465;42.686;23.364;2023-04-26T00:57:21;94031.28;;;11.42;92.96
20612;BME280;10465;42.686;23.364;2023-04-26T00:59:46;94007.53;;;11.33;92.72
20612;BME280;10465;42.686;23.364;2023-04-26T01:02:12;94027.09;;;11.41;93.19
20612;BME280;10465;42.686;23.364;2023-04-26T01:04:38;94029.84;;;11.44;92.26
20612;BME280;10465;42.686;23.364;2023-04-26T01:07:06;94012.81;;;11.33;92.63
20612;BME280;10465;42.686;23.364;2023-04-26T01:09:32;94026.44;;;11.44;92.01
20612;BME280;10465;42.686;23.364;2023-04-26T01:11:59;94017.72;;;11.43;92.03
20612;BME280;10465;42.686;23.364;2023-04-26T01:14:24;94033.59;;;11.43;92.47
20612;BME280;10465;42.686;23.364;2023-04-26T01:16:50;94030.81;;;11.27;93.56
20612;BME280;10465;42.686;23.364;2023-04-26T01:19:16;94035.16;;;11.44;93.52
20612;BME280;10465;42.686;23.364;2023-04-26T01:21:42;94040.69;;;11.51;93.33
20612;BME280;10465;42.686;23.364;2023-04-26T01:24:09;94032.94;;;11.46;93.23
20612;BME280;10465;42.686;23.364;2023-04-26T01:26:35;94025.31;;;11.32;93.91
20612;BME280;10465;42.686;23.364;2023-04-26T01:29:12;94010.41;;;11.28;93.90
20612;BME280;10465;42.686;23.364;2023-04-26T01:31:37;94008.41;;;11.25;94.12
20612;BME280;10465;42.686;23.364;2023-04-26T01:34:03;94004.44;;;11.31;93.56
20612;BME280;10465;42.686;23.364;2023-04-26T01:36:28;94012.72;;;11.29;93.89
20612;BME280;10465;42.686;23.364;2023-04-26T01:38:54;94014.38;;;11.34;93.95
20612;BME280;10465;42.686;23.364;2023-04-26T01:41:19;94005.78;;;11.37;93.54
20612;BME280;10465;42.686;23.364;2023-04-26T01:43:45;94015.50;;;11.45;93.85
20612;BME280;10465;42.686;23.364;2023-04-26T01:46:11;94019.03;;;11.49;93.43
20612;BME280;10465;42.686;23.364;2023-04-26T01:48:36;94032.63;;;11.48;93.56
20612;BME280;10465;42.686;23.364;2023-04-26T01:51:02;94035.38;;;11.51;93.13
20612;BME280;10465;42.686;23.364;2023-04-26T01:53:27;94035.28;;;11.60;92.48
20612;BME280;10465;42.686;23.364;2023-04-26T01:55:53;94027.75;;;11.50;92.34
20612;BME280;10465;42.686;23.364;2023-04-26T01:58:19;94025.53;;;11.39;91.39
20612;BME280;10465;42.686;23.364;2023-04-26T02:00:45;94030.19;;;11.43;91.76
20612;BME280;10465;42.686;23.364;2023-04-26T02:03:10;94017.81;;;11.34;91.70
20612;BME280;10465;42.686;23.364;2023-04-26T02:05:36;94022.66;;;11.32;91.31
20612;BME280;10465;42.686;23.364;2023-04-26T02:08:02;94005.44;;;11.14;92.03
20612;BME280;10465;42.686;23.364;2023-04-26T02:10:27;94014.47;;;11.25;91.41
20612;BME280;10465;42.686;23.364;2023-04-26T02:12:53;94020.00;;;11.20;91.90
20612;BME280;10465;42.686;23.364;2023-04-26T02:15:18;94017.81;;;11.22;91.84
20612;BME280;10465;42.686;23.364;2023-04-26T02:17:44;94016.69;;;11.23;91.42
20612;BME280;10465;42.686;23.364;2023-04-26T02:20:10;94007.50;;;11.08;91.75
20612;BME280;10465;42.686;23.364;2023-04-26T02:22:35;93988.16;;;10.96;91.71
20612;BME280;10465;42.686;23.364;2023-04-26T02:25:01;93988.00;;;10.80;94.05
20612;BME280;10465;42.686;23.364;2023-04-26T02:27:27;93993.34;;;10.92;94.19
20612;BME280;10465;42.686;23.364;2023-04-26T02:29:53;93989.66;;;10.84;94.46
20612;BME280;10465;42.686;23.364;2023-04-26T02:32:18;94009.13;;;11.01;93.79
20612;BME280;10465;42.686;23.364;2023-04-26T02:34:43;94008.78;;;10.90;94.12
20612;BME280;10465;42.686;23.364;2023-04-26T02:37:09;94012.63;;;10.93;94.33
20612;BME280;10465;42.686;23.364;2023-04-26T02:39:35;94004.38;;;10.94;93.71
20612;BME280;10465;42.686;23.364;2023-04-26T02:42:00;93995.53;;;10.78;93.79
20612;BME280;10465;42.686;23.364;2023-04-26T02:44:29;94013.31;;;11.02;93.69
20612;BME280;10465;42.686;23.364;2023-04-26T02:46:55;93993.34;;;10.92;93.82
20612;BME280;10465;42.686;23.364;2023-04-26T02:49:20;94009.13;;;11.01;93.98
20612;BME280;10465;42.686;23.364;2023-04-26T02:51:46;93999.09;;;10.94;94.29
20612;BME280;10465;42.686;23.364;2023-04-26T02:54:11;94005.19;;;11.07;94.14
20612;BME280;10465;42.686;23.364;2023-04-26T02:56:37;93999.13;;;11.06;94.75
20612;BME280;10465;42.686;23.364;2023-04-26T02:59:02;93981.66;;;11.05;93.45
20612;BME280;10465;42.686;23.364;2023-04-26T03:01:27;93995.66;;;11.06;93.67
20612;BME280;10465;42.686;23.364;2023-04-26T03:03:53;93969.25;;;10.85;93.74
20612;BME280;10465;42.686;23.364;2023-04-26T03:06:18;93987.94;;;11.01;93.13
20612;BME280;10465;42.686;23.364;2023-04-26T03:08:44;93997.44;;;11.02;92.31
20612;BME280;10465;42.686;23.364;2023-04-26T03:11:09;93993.88;;;10.98;92.65
20612;BME280;10465;42.686;23.364;2023-04-26T03:13:35;93993.97;;;10.89;92.45
20612;BME280;10465;42.686;23.364;2023-04-26T03:16:01;94001.94;;;10.89;92.55
20612;BME280;10465;42.686;23.364;2023-04-26T03:18:27;94003.03;;;10.88;93.45
20612;BME280;10465;42.686;23.364;2023-04-26T03:20:52;93997.75;;;10.88;93.32
20612;BME280;10465;42.686;23.364;2023-04-26T03:23:18;93978.97;;;10.81;92.98
20612;BME280;10465;42.686;23.364;2023-04-26T03:25:44;93978.94;;;10.69;93.27
20612;BME280;10465;42.686;23.364;2023-04-26T03:28:10;93987.25;;;10.79;93.40
20612;BME280;10465;42.686;23.364;2023-04-26T03:30:35;93966.16;;;10.71;92.84
20612;BME280;10465;42.686;23.364;2023-04-26T03:33:01;93983.81;;;10.79;93.32
20612;BME280;10465;42.686;23.364;2023-04-26T03:35:26;93969.00;;;10.66;93.07
20612;BME280;10465;42.686;23.364;2023-04-26T03:37:51;93993.22;;;10.88;92.51
20612;BME280;10465;42.686;23.364;2023-04-26T03:40:17;93988.47;;;10.82;91.81
20612;BME280;10465;42.686;23.364;2023-04-26T03:42:42;94007.34;;;10.93;91.48
20612;BME280;10465;42.686;23.364;2023-04-26T03:45:08;94002.03;;;10.93;91.04
20612;BME280;10465;42.686;23.364;2023-04-26T03:47:34;94002.63;;;10.98;90.48
20612;BME280;10465;42.686;23.364;2023-04-26T03:49:59;93992.13;;;11.02;91.26
20612;BME280;10465;42.686;23.364;2023-04-26T03:52:25;94009.38;;;11.20;90.87
20612;BME280;10465;42.686;23.364;2023-04-26T03:54:50;94009.41;;;11.32;89.80
20612;BME280;10465;42.686;23.364;2023-04-26T03:57:16;94004.56;;;11.34;89.31
20612;BME280;10465;42.686;23.364;2023-04-26T03:59:41;94010.97;;;11.46;88.90
20612;BME280;10465;42.686;23.364;2023-04-26T04:02:07;94008.19;;;11.54;89.20
20612;BME280;10465;42.686;23.364;2023-04-26T04:04:32;93881.88;;;10.73;89.04
20612;BME280;10465;42.686;23.364;2023-04-26T04:06:58;93993.75;;;11.52;88.96
20612;BME280;10465;42.686;23.364;2023-04-26T04:09:23;94017.25;;;11.66;88.93
20612;BME280;10465;42.686;23.364;2023-04-26T04:11:49;94020.91;;;11.73;88.84
20612;BME280;10465;42.686;23.364;2023-04-26T04:14:15;94019.03;;;11.74;88.79
20612;BME280;10465;42.686;23.364;2023-04-26T04:16:40;94011.66;;;11.67;88.26
20612;BME280;10465;42.686;23.364;2023-04-26T04:19:06;94028.53;;;11.75;87.92
20612;BME280;10465;42.686;23.364;2023-04-26T04:21:31;94034.53;;;11.84;87.17
20612;BME280;10465;42.686;23.364;2023-04-26T04:23:57;94018.72;;;11.75;87.51
20612;BME280;10465;42.686;23.364;2023-04-26T04:26:22;94042.25;;;11.89;87.80
20612;BME280;10465;42.686;23.364;2023-04-26T04:28:48;94032.53;;;11.93;87.75
20612;BME280;10465;42.686;23.364;2023-04-26T04:31:13;94040.16;;;11.95;87.00
20612;BME280;10465;42.686;23.364;2023-04-26T04:33:39;94025.81;;;11.96;87.89
20612;BME280;10465;42.686;23.364;2023-04-26T04:36:05;94037.16;;;12.08;86.95
20612;BME280;10465;42.686;23.364;2023-04-26T04:38:31;94038.03;;;12.12;85.38
20612;BME280;10465;42.686;23.364;2023-04-26T04:40:57;94044.13;;;12.13;85.01
20612;BME280;10465;42.686;23.364;2023-04-26T04:43:22;94036.16;;;12.13;85.09
20612;BME280;10465;42.686;23.364;2023-04-26T04:45:48;94036.50;;;12.11;84.29
20612;BME280;10465;42.686;23.364;2023-04-26T04:48:14;94041.69;;;12.08;84.42
20612;BME280;10465;42.686;23.364;2023-04-26T04:50:40;94040.13;;;12.19;84.36
20612;BME280;10465;42.686;23.364;2023-04-26T04:53:09;93984.94;;;11.84;83.83
20612;BME280;10465;42.686;23.364;2023-04-26T04:55:34;94041.34;;;12.22;84.00
20612;BME280;10465;42.686;23.364;2023-04-26T04:58:02;94048.28;;;12.26;83.74
20612;BME280;10465;42.686;23.364;2023-04-26T05:00:28;94044.31;;;12.32;82.97
20612;BME280;10465;42.686;23.364;2023-04-26T05:02:54;94046.84;;;12.29;82.57
20612;BME280;10465;42.686;23.364;2023-04-26T05:05:19;94046.09;;;12.28;82.76
20612;BME280;10465;42.686;23.364;2023-04-26T05:07:45;94055.69;;;12.33;82.23
20612;BME280;10465;42.686;23.364;2023-04-26T05:10:11;94040.69;;;12.25;82.76
20612;BME280;10465;42.686;23.364;2023-04-26T05:12:36;94043.63;;;12.35;82.23
20612;BME280;10465;42.686;23.364;2023-04-26T05:15:02;94045.19;;;12.36;81.75
20612;BME280;10465;42.686;23.364;2023-04-26T05:17:28;94045.28;;;12.40;81.44
20612;BME280;10465;42.686;23.364;2023-04-26T05:19:59;94057.56;;;12.45;81.15
20612;BME280;10465;42.686;23.364;2023-04-26T05:22:25;94027.16;;;12.30;81.39
20612;BME280;10465;42.686;23.364;2023-04-26T05:24:51;94052.25;;;12.45;81.81
20612;BME280;10465;42.686;23.364;2023-04-26T05:27:16;94044.28;;;12.45;81.40
20612;BME280;10465;42.686;23.364;2023-04-26T05:29:41;94055.75;;;12.61;81.57
20612;BME280;10465;42.686;23.364;2023-04-26T05:32:07;94062.19;;;12.76;81.85
20612;BME280;10465;42.686;23.364;2023-04-26T05:34:32;94066.06;;;12.78;82.37
20612;BME280;10465;42.686;23.364;2023-04-26T05:36:58;94049.94;;;12.71;81.84
20612;BME280;10465;42.686;23.364;2023-04-26T05:39:23;94033.03;;;12.63;81.39
20612;BME280;10465;42.686;23.364;2023-04-26T05:41:49;94056.66;;;12.81;81.41
20612;BME280;10465;42.686;23.364;2023-04-26T05:44:15;94067.41;;;12.84;81.48
20612;BME280;10465;42.686;23.364;2023-04-26T05:46:40;94069.44;;;12.91;81.14
20612;BME280;10465;42.686;23.364;2023-04-26T05:49:06;94070.22;;;12.92;80.85
20612;BME280;10465;42.686;23.364;2023-04-26T05:51:31;94068.13;;;12.97;80.53
20612;BME280;10465;42.686;23.364;2023-04-26T05:53:57;94069.75;;;13.02;80.06
20612;BME280;10465;42.686;23.364;2023-04-26T05:56:22;94056.28;;;12.95;79.42
20612;BME280;10465;42.686;23.364;2023-04-26T05:58:51;94049.66;;;12.89;78.64
20612;BME280;10465;42.686;23.364;2023-04-26T06:01:18;94067.41;;;13.00;78.73
20612;BME280;10465;42.686;23.364;2023-04-26T06:03:44;94061.44;;;13.03;78.36
20612;BME280;10465;42.686;23.364;2023-04-26T06:06:10;94076.78;;;13.10;78.34
20612;BME280;10465;42.686;23.364;2023-04-26T06:08:35;94062.28;;;13.07;78.14
20612;BME280;10465;42.686;23.364;2023-04-26T06:11:01;94078.88;;;13.17;78.70
20612;BME280;10465;42.686;23.364;2023-04-26T06:13:27;94060.00;;;13.06;79.01
20612;BME280;10465;42.686;23.364;2023-04-26T06:15:53;94062.50;;;13.15;78.92
20612;BME280;10465;42.686;23.364;2023-04-26T06:18:18;94084.47;;;13.27;78.28
20612;BME280;10465;42.686;23.364;2023-04-26T06:20:45;94081.25;;;13.34;77.75
20612;BME280;10465;42.686;23.364;2023-04-26T06:23:11;94073.28;;;13.34;78.65
20612;BME280;10465;42.686;23.364;2023-04-26T06:25:36;94071.56;;;13.26;78.50
20612;BME280;10465;42.686;23.364;2023-04-26T06:28:02;94057.63;;;13.17;78.70
20612;BME280;10465;42.686;23.364;2023-04-26T06:30:28;94070.94;;;13.32;78.36
20612;BME280;10465;42.686;23.364;2023-04-26T06:32:53;94016.72;;;13.05;78.79
20612;BME280;10465;42.686;23.364;2023-04-26T06:35:19;94067.63;;;13.51;77.60
20612;BME280;10465;42.686;23.364;2023-04-26T06:37:44;94065.25;;;13.62;78.33
20612;BME280;10465;42.686;23.364;2023-04-26T06:40:10;94073.03;;;13.71;78.43
20612;BME280;10465;42.686;23.364;2023-04-26T06:42:38;94072.59;;;13.84;77.65
20612;BME280;10465;42.686;23.364;2023-04-26T06:45:03;94073.28;;;13.97;75.35
20612;BME280;10465;42.686;23.364;2023-04-26T06:47:29;94071.63;;;14.08;74.00
20612;BME280;10465;42.686;23.364;2023-04-26T06:49:54;94050.91;;;13.98;70.69
20612;BME280;10465;42.686;23.364;2023-04-26T06:52:20;94062.97;;;14.12;69.93
20612;BME280;10465;42.686;23.364;2023-04-26T06:54:46;94068.97;;;14.24;69.88
20612;BME280;10465;42.686;23.364;2023-04-26T06:57:16;94086.13;;;14.27;68.39
20612;BME280;10465;42.686;23.364;2023-04-26T06:59:41;94061.69;;;14.05;66.57
20612;BME280;10465;42.686;23.364;2023-04-26T07:02:07;94083.66;;;14.18;65.75
20612;BME280;10465;42.686;23.364;2023-04-26T07:04:32;94074.22;;;14.05;65.37
20612;BME280;10465;42.686;23.364;2023-04-26T07:06:58;94079.97;;;14.07;65.35
20612;BME280;10465;42.686;23.364;2023-04-26T07:09:23;94069.16;;;14.00;65.44
20612;BME280;10465;42.686;23.364;2023-04-26T07:11:49;94082.19;;;14.21;64.73
20612;BME280;10465;42.686;23.364;2023-04-26T07:14:14;94089.66;;;14.15;63.67
20612;BME280;10465;42.686;23.364;2023-04-26T07:16:41;94088.28;;;14.21;64.25
20612;BME280;10465;42.686;23.364;2023-04-26T07:19:06;94077.22;;;14.19;63.44
20612;BME280;10465;42.686;23.364;2023-04-26T07:21:32;94094.03;;;14.23;64.05
20612;BME280;10465;42.686;23.364;2023-04-26T07:23:58;94088.06;;;14.10;63.08
20612;BME280;10465;42.686;23.364;2023-04-26T07:26:24;94104.34;;;13.93;64.00
20612;BME280;10465;42.686;23.364;2023-04-26T07:28:50;94104.34;;;13.93;64.24
20612;BME280;10465;42.686;23.364;2023-04-26T07:31:17;94093.28;;;13.91;64.06
20612;BME280;10465;42.686;23.364;2023-04-26T07:33:42;94104.94;;;14.18;63.64
20612;BME280;10465;42.686;23.364;2023-04-26T07:36:08;94080.66;;;14.20;62.55
20612;BME280;10465;42.686;23.364;2023-04-26T07:38:33;94105.63;;;14.31;62.23
20612;BME280;10465;42.686;23.364;2023-04-26T07:40:59;94068.22;;;14.08;61.69
20612;BME280;10465;42.686;23.364;2023-04-26T07:43:29;94088.78;;;14.27;61.63
20612;BME280;10465;42.686;23.364;2023-04-26T07:45:58;94090.09;;;14.17;60.51
20612;BME280;10465;42.686;23.364;2023-04-26T07:48:24;94102.09;;;14.43;60.95
20612;BME280;10465;42.686;23.364;2023-04-26T07:50:49;94088.50;;;14.48;61.33
20612;BME280;10465;42.686;23.364;2023-04-26T07:53:16;94118.75;;;14.55;59.67
20612;BME280;10465;42.686;23.364;2023-04-26T07:55:41;94106.47;;;14.35;59.97
20612;BME280;10465;42.686;23.364;2023-04-26T07:58:07;94111.53;;;14.40;59.41
20612;BME280;10465;42.686;23.364;2023-04-26T08:00:33;94104.22;;;14.37;58.52
20612;BME280;10465;42.686;23.364;2023-04-26T08:03:02;94115.56;;;14.50;56.65
20612;BME280;10465;42.686;23.364;2023-04-26T08:05:33;94116.03;;;14.71;56.82
20612;BME280;10465;42.686;23.364;2023-04-26T08:07:59;94114.13;;;14.72;57.16
20612;BME280;10465;42.686;23.364;2023-04-26T08:10:27;94111.59;;;14.59;56.84
20612;BME280;10465;42.686;23.364;2023-04-26T08:12:53;94106.75;;;14.65;56.99
20612;BME280;10465;42.686;23.364;2023-04-26T08:15:20;94114.69;;;14.81;56.95
20612;BME280;10465;42.686;23.364;2023-04-26T08:17:45;94083.34;;;14.74;56.29
20612;BME280;10465;42.686;23.364;2023-04-26T08:20:12;94093.13;;;14.67;56.70
20612;BME280;10465;42.686;23.364;2023-04-26T08:22:38;94107.16;;;14.83;57.15
20612;BME280;10465;42.686;23.364;2023-04-26T08:25:04;94114.78;;;15.04;57.61
20612;BME280;10465;42.686;23.364;2023-04-26T08:27:30;94114.38;;;15.21;56.39
20612;BME280;10465;42.686;23.364;2023-04-26T08:29:56;94094.09;;;15.36;55.59
20612;BME280;10465;42.686;23.364;2023-04-26T08:32:22;94112.69;;;15.55;55.35
20612;BME280;10465;42.686;23.364;2023-04-26T08:34:47;94116.31;;;15.44;55.67
20612;BME280;10465;42.686;23.364;2023-04-26T08:37:13;94114.06;;;15.65;54.87
20612;BME280;10465;42.686;23.364;2023-04-26T08:39:38;94081.16;;;15.38;53.52
20612;BME280;10465;42.686;23.364;2023-04-26T08:42:15;94118.00;;;15.32;55.58
20612;BME280;10465;42.686;23.364;2023-04-26T08:44:43;94110.84;;;15.37;55.09
20612;BME280;10465;42.686;23.364;2023-04-26T08:50:02;94118.84;;;15.37;54.55
20612;BME280;10465;42.686;23.364;2023-04-26T08:52:31;94093.03;;;15.02;55.12
20612;BME280;10465;42.686;23.364;2023-04-26T08:54:57;94116.97;;;15.18;56.01
20612;BME280;10465;42.686;23.364;2023-04-26T08:57:23;94104.81;;;15.20;54.45
20612;BME280;10465;42.686;23.364;2023-04-26T08:59:49;94127.63;;;15.18;53.85
20612;BME280;10465;42.686;23.364;2023-04-26T09:02:20;94122.44;;;15.25;53.70
20612;BME280;10465;42.686;23.364;2023-04-26T09:04:46;94125.94;;;15.29;53.99
20612;BME280;10465;42.686;23.364;2023-04-26T09:07:21;94114.56;;;15.32;53.14
20612;BME280;10465;42.686;23.364;2023-04-26T09:09:48;94119.28;;;15.19;53.58
20612;BME280;10465;42.686;23.364;2023-04-26T09:12:18;94117.72;;;15.18;53.47
20612;BME280;10465;42.686;23.364;2023-04-26T09:14:45;94104.91;;;15.24;53.04
20612;BME280;10465;42.686;23.364;2023-04-26T09:17:31;94128.38;;;15.18;52.68
20612;BME280;10465;42.686;23.364;2023-04-26T09:19:57;94122.28;;;15.37;52.82
20612;BME280;10465;42.686;23.364;2023-04-26T09:22:33;94134.00;;;15.32;52.36
20612;BME280;10465;42.686;23.364;2023-04-26T09:25:01;94131.56;;;15.24;52.34
20612;BME280;10465;42.686;23.364;2023-04-26T09:27:32;94132.72;;;15.46;51.42
20612;BME280;10465;42.686;23.364;2023-04-26T09:30:03;94129.75;;;15.51;51.49
20612;BME280;10465;42.686;23.364;2023-04-26T09:32:53;94124.16;;;15.56;51.04
20612;BME280;10465;42.686;23.364;2023-04-26T09:38:00;94118.91;;;15.40;50.50
20612;BME280;10465;42.686;23.364;2023-04-26T09:40:30;94114.97;;;15.53;50.42
20612;BME280;10465;42.686;23.364;2023-04-26T09:43:12;94121.00;;;15.70;50.95
20612;BME280;10465;42.686;23.364;2023-04-26T09:48:18;94121.81;;;15.74;50.00
20612;BME280;10465;42.686;23.364;2023-04-26T09:50:46;94118.47;;;15.57;49.47
20612;BME280;10465;42.686;23.364;2023-04-26T09:53:30;94116.34;;;15.67;49.46
20612;BME280;10465;42.686;23.364;2023-04-26T09:58:36;94124.19;;;15.79;48.50
20612;BME280;10465;42.686;23.364;2023-04-26T10:01:03;94108.31;;;15.86;48.58
20612;BME280;10465;42.686;23.364;2023-04-26T10:03:30;94107.28;;;15.94;48.83
20612;BME280;10465;42.686;23.364;2023-04-26T10:05:58;94093.19;;;15.94;48.43
20612;BME280;10465;42.686;23.364;2023-04-26T10:08:24;94098.09;;;16.15;48.47
20612;BME280;10465;42.686;23.364;2023-04-26T10:10:50;94095.22;;;16.00;46.63
20612;BME280;10465;42.686;23.364;2023-04-26T10:13:17;94109.38;;;16.04;46.66
20612;BME280;10465;42.686;23.364;2023-04-26T10:15:43;94068.16;;;15.79;46.39
20612;BME280;10465;42.686;23.364;2023-04-26T10:18:09;94105.25;;;16.11;45.89
20612;BME280;10465;42.686;23.364;2023-04-26T10:20:39;94104.94;;;16.16;45.13
20612;BME280;10465;42.686;23.364;2023-04-26T10:23:20;94076.97;;;16.06;44.96
20612;BME280;10465;42.686;23.364;2023-04-26T10:25:46;94111.69;;;16.32;44.17
20612;BME280;10465;42.686;23.364;2023-04-26T10:28:11;94095.78;;;16.40;43.33
20612;BME280;10465;42.686;23.364;2023-04-26T10:30:53;94100.03;;;16.44;43.61
20612;BME280;10465;42.686;23.364;2023-04-26T10:33:19;94084.06;;;16.21;43.27
20612;BME280;10465;42.686;23.364;2023-04-26T10:36:12;94092.84;;;16.22;43.70
20612;BME280;10465;42.686;23.364;2023-04-26T10:39:16;94081.09;;;16.26;44.36
20612;BME280;10465;42.686;23.364;2023-04-26T10:41:34;94094.63;;;16.37;44.52
20612;BME280;10465;42.686;23.364;2023-04-26T10:46:57;94095.53;;;16.22;42.78
20612;BME280;10465;42.686;23.364;2023-04-26T10:49:22;94104.00;;;16.27;43.17
20612;BME280;10465;42.686;23.364;2023-04-26T10:52:07;94095.13;;;16.46;42.91
20612;BME280;10465;42.686;23.364;2023-04-26T10:57:14;94086.19;;;16.62;41.42
20612;BME280;10465;42.686;23.364;2023-04-26T11:05:51;94093.75;;;16.60;40.82
20612;BME280;10465;42.686;23.364;2023-04-26T11:08:29;94096.59;;;16.44;40.25
20612;BME280;10465;42.686;23.364;2023-04-26T11:13:32;94099.47;;;16.31;40.18
20612;BME280;10465;42.686;23.364;2023-04-26T11:16:03;94099.69;;;16.46;40.48
20612;BME280;10465;42.686;23.364;2023-04-26T11:18:30;94097.78;;;16.46;40.16
20612;BME280;10465;42.686;23.364;2023-04-26T11:20:57;94091.19;;;16.40;41.07
20612;BME280;10465;42.686;23.364;2023-04-26T11:23:24;94090.59;;;16.50;40.74
20612;BME280;10465;42.686;23.364;2023-04-26T11:25:50;94091.25;;;16.44;40.68
20612;BME280;10465;42.686;23.364;2023-04-26T11:28:17;94090.00;;;16.64;40.94
20612;BME280;10465;42.686;23.364;2023-04-26T11:30:43;94074.19;;;16.78;40.27
20612;BME280;10465;42.686;23.364;2023-04-26T11:33:15;94078.94;;;16.62;39.48
20612;BME280;10465;42.686;23.364;2023-04-26T11:35:48;94093.75;;;16.60;40.19
20612;BME280;10465;42.686;23.364;2023-04-26T11:38:13;94091.09;;;16.60;39.59
20612;BME280;10465;42.686;23.364;2023-04-26T11:40:40;94081.00;;;16.46;40.40
20612;BME280;10465;42.686;23.364;2023-04-26T11:43:06;94089.78;;;16.46;40.47
20612;BME280;10465;42.686;23.364;2023-04-26T11:45:33;94095.09;;;16.20;40.61
20612;BME280;10465;42.686;23.364;2023-04-26T11:48:01;94099.13;;;16.33;40.38
20612;BME280;10465;42.686;23.364;2023-04-26T11:50:28;94090.81;;;16.38;39.81
20612;BME280;10465;42.686;23.364;2023-04-26T11:52:54;94083.78;;;16.53;39.15
20612;BME280;10465;42.686;23.364;2023-04-26T11:55:26;94067.53;;;16.69;39.13
20612;BME280;10465;42.686;23.364;2023-04-26T11:57:52;94040.09;;;16.72;39.10
20612;BME280;10465;42.686;23.364;2023-04-26T12:00:18;94077.34;;;17.18;38.26
20612;BME280;10465;42.686;23.364;2023-04-26T12:02:47;94082.94;;;17.43;38.22
20612;BME280;10465;42.686;23.364;2023-04-26T12:07:49;94080.66;;;17.45;38.40
20612;BME280;10465;42.686;23.364;2023-04-26T12:10:17;94084.50;;;17.10;38.49
20612;BME280;10465;42.686;23.364;2023-04-26T12:12:47;94068.56;;;16.87;39.27
20612;BME280;10465;42.686;23.364;2023-04-26T12:15:14;94055.16;;;16.84;39.73
20612;BME280;10465;42.686;23.364;2023-04-26T12:17:39;94076.34;;;16.99;40.16
20612;BME280;10465;42.686;23.364;2023-04-26T12:20:09;94057.56;;;16.92;39.93
20612;BME280;10465;42.686;23.364;2023-04-26T12:22:35;94064.22;;;17.05;40.27
20612;BME280;10465;42.686;23.364;2023-04-26T12:25:05;94069.09;;;17.00;39.50
20612;BME280;10465;42.686;23.364;2023-04-26T12:27:31;94070.28;;;17.02;39.50
20612;BME280;10465;42.686;23.364;2023-04-26T12:29:56;94071.72;;;16.96;39.32
20612;BME280;10465;42.686;23.364;2023-04-26T12:32:22;94075.22;;;16.70;39.22
20612;BME280;10465;42.686;23.364;2023-04-26T12:34:48;94061.66;;;16.56;39.43
20612;BME280;10465;42.686;23.364;2023-04-26T12:37:13;94072.44;;;16.63;39.72
20612;BME280;10465;42.686;23.364;2023-04-26T12:39:38;94072.94;;;16.72;39.06
20612;BME280;10465;42.686;23.364;2023-04-26T12:42:04;94076.75;;;16.71;39.41
20612;BME280;10465;42.686;23.364;2023-04-26T12:44:30;94070.91;;;16.62;38.93
20612;BME280;10465;42.686;23.364;2023-04-26T12:46:56;94076.38;;;16.43;39.35
20612;BME280;10465;42.686;23.364;2023-04-26T12:49:21;94075.22;;;16.44;40.13
20612;BME280;10465;42.686;23.364;2023-04-26T12:51:47;94026.41;;;16.17;40.23
20612;BME280;10465;42.686;23.364;2023-04-26T12:54:12;94067.69;;;16.49;40.63
20612;BME280;10465;42.686;23.364;2023-04-26T12:56:38;94072.78;;;16.31;40.53
20612;BME280;10465;42.686;23.364;2023-04-26T12:59:08;94070.31;;;16.19;41.30
20612;BME280;10465;42.686;23.364;2023-04-26T13:01:33;94069.16;;;16.20;40.92
20612;BME280;10465;42.686;23.364;2023-04-26T13:03:59;94055.50;;;15.72;41.13
20612;BME280;10465;42.686;23.364;2023-04-26T13:06:25;94078.69;;;15.95;41.50
20612;BME280;10465;42.686;23.364;2023-04-26T13:08:53;94082.81;;;15.89;41.51
20612;BME280;10465;42.686;23.364;2023-04-26T13:11:19;94085.63;;;15.53;41.85
20612;BME280;10465;42.686;23.364;2023-04-26T13:13:44;94084.47;;;15.54;42.45
20612;BME280;10465;42.686;23.364;2023-04-26T13:16:10;94099.66;;;15.50;43.24